Time;durP1;ratioP1;P1;durP2;ratioP2;P2;SDS_P1;SDS_P2;PMS_P1;PMS_P2;Temp;Humidity;BMP_temperature;BMP_pressure;BME280_temperature;BME280_humidity;BME280_pressure;Samples;Min_cycle;Max_cycle;Signal;HPM_P1;HPM_P2
2023/03/18 00:02:27;;;;;;;7.40;4.03;;;21.60;41.00;;;;;;4954930;29;20455;-85
2023/03/18 00:04:55;;;;;;;4.40;3.80;;;21.70;41.20;;;;;;4956576;28;20504;-86
2023/03/18 00:07:23;;;;;;;6.13;4.07;;;21.70;41.20;;;;;;4953823;28;20471;-85
2023/03/18 00:09:51;;;;;;;5.90;4.40;;;21.70;41.20;;;;;;4953907;29;20451;-84
2023/03/18 00:12:20;;;;;;;5.93;3.80;;;21.60;41.20;;;;;;4953020;28;20530;-84
2023/03/18 00:14:48;;;;;;;5.63;4.10;;;21.60;41.30;;;;;;4961518;28;20506;-89
2023/03/18 00:17:16;;;;;;;4.57;3.70;;;21.60;41.30;;;;;;4952504;28;20538;-86
2023/03/18 00:19:47;;;;;;;9.40;3.77;;;21.60;41.30;;;;;;4954384;28;20466;-86
2023/03/18 00:22:16;;;;;;;4.73;3.70;;;21.60;41.40;;;;;;4952937;28;20461;-85
2023/03/18 00:24:45;;;;;;;5.43;4.00;;;21.60;41.30;;;;;;4956440;28;21007;-84
2023/03/18 00:27:15;;;;;;;3.73;3.30;;;21.60;41.40;;;;;;4947380;29;20502;-83
2023/03/18 00:29:44;;;;;;;4.23;3.83;;;21.60;41.30;;;;;;4947158;28;20456;-85
2023/03/18 00:32:13;;;;;;;6.40;4.23;;;21.60;41.40;;;;;;4949216;28;20471;-84
2023/03/18 00:34:42;;;;;;;4.20;3.80;;;21.60;41.50;;;;;;4949020;29;20546;-85
2023/03/18 00:37:17;;;;;;;4.63;4.23;;;21.60;41.50;;;;;;4952446;28;20785;-84
2023/03/18 00:39:46;;;;;;;3.83;3.40;;;21.60;41.50;;;;;;4956101;28;20955;-84
2023/03/18 00:42:14;;;;;;;6.37;3.93;;;21.60;41.50;;;;;;4953065;28;20475;-85
2023/03/18 00:44:43;;;;;;;4.03;3.70;;;21.60;41.60;;;;;;4952713;28;20460;-84
2023/03/18 00:47:12;;;;;;;6.50;3.70;;;21.60;41.60;;;;;;4952144;29;20482;-84
2023/03/18 00:49:40;;;;;;;3.40;3.10;;;21.50;41.70;;;;;;4951047;28;20455;-85
2023/03/18 00:52:08;;;;;;;3.90;3.50;;;21.50;41.80;;;;;;4953056;28;20467;-85
2023/03/18 00:54:37;;;;;;;4.07;3.63;;;21.50;41.90;;;;;;4954742;29;20460;-85
2023/03/18 00:57:06;;;;;;;4.57;3.70;;;21.50;42.00;;;;;;4951742;28;20474;-85
2023/03/18 00:59:34;;;;;;;3.57;3.27;;;21.50;42.00;;;;;;4952652;28;20455;-85
2023/03/18 01:02:03;;;;;;;7.43;3.87;;;21.40;42.00;;;;;;4953337;28;20479;-85
2023/03/18 01:04:31;;;;;;;4.90;3.80;;;21.40;42.10;;;;;;4950270;28;20455;-85
2023/03/18 01:07:00;;;;;;;3.73;3.40;;;21.40;42.20;;;;;;4956800;29;20471;-84
2023/03/18 01:09:28;;;;;;;3.73;3.43;;;21.40;42.20;;;;;;4956747;28;20455;-84
2023/03/18 01:11:58;;;;;;;4.27;3.37;;;21.40;42.30;;;;;;4954833;29;20473;-82
2023/03/18 01:14:26;;;;;;;6.20;3.80;;;21.40;42.20;;;;;;4958497;28;20454;-86
2023/03/18 01:16:55;;;;;;;4.30;3.33;;;21.40;42.40;;;;;;4963430;28;20486;-85
2023/03/18 01:19:25;;;;;;;3.87;3.37;;;21.40;42.40;;;;;;4954876;28;20444;-84
2023/03/18 01:21:53;;;;;;;4.90;3.70;;;21.40;42.40;;;;;;4950457;28;20443;-84
2023/03/18 01:24:21;;;;;;;4.63;3.07;;;21.30;42.30;;;;;;4956144;29;20455;-83
2023/03/18 01:26:50;;;;;;;3.83;3.17;;;21.40;42.50;;;;;;4953285;29;20493;-84
2023/03/18 01:29:22;;;;;;;3.63;3.33;;;21.40;42.60;;;;;;4958783;28;20443;-83
2023/03/18 01:31:50;;;;;;;4.87;3.60;;;21.40;42.50;;;;;;4957355;29;20471;-84
2023/03/18 01:34:19;;;;;;;4.30;3.60;;;21.40;42.60;;;;;;4951394;29;20494;-84
2023/03/18 01:36:47;;;;;;;4.37;3.60;;;21.40;42.60;;;;;;4950272;29;20485;-83
2023/03/18 01:39:16;;;;;;;4.23;3.50;;;21.30;42.60;;;;;;4962845;29;20451;-84
2023/03/18 01:41:44;;;;;;;3.87;3.17;;;21.30;42.60;;;;;;4957407;28;20474;-84
2023/03/18 01:44:13;;;;;;;3.37;3.07;;;21.40;42.70;;;;;;4954041;29;20492;-84
2023/03/18 01:46:44;;;;;;;4.17;3.63;;;21.40;42.70;;;;;;4965013;28;20466;-84
2023/03/18 01:49:15;;;;;;;3.97;3.57;;;21.30;42.60;;;;;;4960964;28;20459;-83
2023/03/18 01:51:45;;;;;;;3.77;3.07;;;21.30;42.70;;;;;;4960230;28;20458;-84
2023/03/18 01:54:13;;;;;;;3.77;3.47;;;21.30;42.60;;;;;;4960928;28;20459;-83
2023/03/18 01:56:41;;;;;;;3.43;3.13;;;21.30;42.80;;;;;;4957398;28;20493;-84
2023/03/18 01:59:10;;;;;;;5.53;3.10;;;21.30;42.80;;;;;;4957827;29;20465;-84
2023/03/18 02:01:41;;;;;;;5.50;3.17;;;21.30;42.80;;;;;;4959889;29;20459;-84
2023/03/18 02:04:11;;;;;;;3.63;2.70;;;21.30;42.70;;;;;;4959359;28;20447;-84
2023/03/18 02:06:39;;;;;;;3.40;3.20;;;21.30;42.90;;;;;;4958690;29;20507;-84
2023/03/18 02:09:07;;;;;;;3.50;3.20;;;21.30;42.90;;;;;;4957353;29;20466;-84
2023/03/18 02:11:38;;;;;;;4.70;3.40;;;21.30;42.90;;;;;;4956508;28;20481;-83
2023/03/18 02:14:06;;;;;;;3.50;3.20;;;21.30;42.90;;;;;;4960207;29;20471;-84
2023/03/18 02:16:38;;;;;;;4.67;3.13;;;21.30;43.00;;;;;;4960637;29;20478;-84
2023/03/18 02:19:09;;;;;;;3.60;3.00;;;21.20;42.80;;;;;;4956764;28;20466;-84
2023/03/18 02:21:43;;;;;;;7.30;3.27;;;21.30;43.00;;;;;;4958589;28;20465;-84
2023/03/18 02:24:19;;;;;;;3.37;2.70;;;21.20;42.90;;;;;;4960645;28;20475;-84
2023/03/18 02:26:53;;;;;;;3.93;3.63;;;21.20;42.90;;;;;;4955631;29;20475;-83
2023/03/18 02:29:23;;;;;;;4.07;3.30;;;21.20;42.90;;;;;;4957814;28;20990;-84
2023/03/18 02:31:51;;;;;;;4.07;3.33;;;21.20;43.10;;;;;;4954619;29;20452;-84
2023/03/18 02:34:19;;;;;;;3.50;3.20;;;21.20;43.00;;;;;;4958622;28;20470;-84
2023/03/18 02:36:47;;;;;;;6.50;3.20;;;21.20;43.20;;;;;;4957609;28;20546;-83
2023/03/18 02:39:15;;;;;;;4.47;3.60;;;21.20;43.10;;;;;;4961719;29;20461;-84
2023/03/18 02:41:43;;;;;;;3.60;3.30;;;21.20;43.10;;;;;;4948263;29;20455;-83
2023/03/18 02:44:13;;;;;;;3.53;3.23;;;21.20;43.10;;;;;;4957851;29;20453;-83
2023/03/18 02:46:47;;;;;;;3.90;3.23;;;21.20;43.20;;;;;;4954934;29;20479;-84
2023/03/18 02:49:15;;;;;;;3.70;3.40;;;21.20;43.20;;;;;;4957292;29;20469;-84
2023/03/18 02:51:43;;;;;;;4.93;3.53;;;21.20;43.30;;;;;;4960360;29;20443;-84
2023/03/18 02:54:14;;;;;;;3.30;3.00;;;21.20;43.10;;;;;;4963083;29;20535;-84
2023/03/18 02:56:42;;;;;;;3.87;3.53;;;21.20;43.30;;;;;;4959183;28;20483;-85
2023/03/18 02:59:11;;;;;;;3.60;3.30;;;21.20;43.20;;;;;;4959090;29;20465;-84
2023/03/18 03:01:41;;;;;;;4.00;3.40;;;21.10;43.10;;;;;;4961037;28;20467;-84
2023/03/18 03:04:16;;;;;;;3.23;3.03;;;21.10;43.20;;;;;;4960386;28;20454;-84
2023/03/18 03:06:44;;;;;;;6.10;4.67;;;21.10;43.20;;;;;;4957771;28;20477;-85
2023/03/18 03:09:14;;;;;;;10.03;6.90;;;21.10;43.20;;;;;;4959387;29;20465;-84
2023/03/18 03:11:42;;;;;;;7.10;5.97;;;21.10;43.20;;;;;;4963743;28;20458;-85
2023/03/18 03:14:11;;;;;;;9.23;7.13;;;21.10;43.20;;;;;;4964544;29;20542;-85
2023/03/18 03:16:39;;;;;;;10.03;7.83;;;21.10;43.30;;;;;;4962707;28;20554;-84
2023/03/18 03:19:07;;;;;;;13.17;8.00;;;21.10;43.40;;;;;;4963677;28;20467;-84
2023/03/18 03:21:37;;;;;;;11.33;7.33;;;21.10;43.30;;;;;;4961934;28;20457;-85
2023/03/18 03:24:06;;;;;;;10.50;7.60;;;21.10;43.30;;;;;;4965708;28;20458;-84
2023/03/18 03:26:34;;;;;;;10.20;7.33;;;21.10;43.40;;;;;;4963742;28;20482;-84
2023/03/18 03:29:03;;;;;;;9.20;7.17;;;21.00;43.30;;;;;;4963823;28;20455;-84
2023/03/18 03:31:32;;;;;;;9.20;6.90;;;21.10;43.40;;;;;;4964274;29;20459;-85
2023/03/18 03:34:00;;;;;;;9.70;6.67;;;21.00;43.40;;;;;;4962949;29;20537;-84
2023/03/18 03:36:28;;;;;;;12.07;7.37;;;21.00;43.30;;;;;;4964092;28;20467;-84
2023/03/18 03:38:57;;;;;;;9.97;7.50;;;21.00;43.40;;;;;;4952300;28;20459;-84
2023/03/18 03:41:26;;;;;;;9.23;6.57;;;21.00;43.40;;;;;;4955474;29;20550;-83
2023/03/18 03:43:54;;;;;;;10.20;6.73;;;21.00;43.40;;;;;;4958532;28;20447;-83
2023/03/18 03:46:22;;;;;;;9.90;6.97;;;21.00;43.40;;;;;;4957816;28;20477;-82
2023/03/18 03:48:53;;;;;;;9.17;6.60;;;21.00;43.50;;;;;;4955759;28;20519;-83
2023/03/18 03:51:22;;;;;;;12.33;6.70;;;21.00;44.10;;;;;;4956629;29;20466;-82
2023/03/18 03:53:50;;;;;;;9.80;6.63;;;21.00;43.60;;;;;;4960352;28;20469;-82
2023/03/18 03:56:21;;;;;;;7.70;6.10;;;21.00;43.50;;;;;;4958740;28;20482;-82
2023/03/18 03:58:49;;;;;;;7.50;5.97;;;21.00;43.60;;;;;;4954551;29;20486;-83
2023/03/18 04:01:17;;;;;;;7.70;6.37;;;21.00;43.60;;;;;;4958295;28;20459;-82
2023/03/18 04:03:46;;;;;;;10.23;6.53;;;21.00;43.70;;;;;;4953289;29;20462;-82
2023/03/18 04:06:14;;;;;;;8.87;6.17;;;21.00;43.70;;;;;;4954814;28;20475;-84
2023/03/18 04:08:42;;;;;;;7.97;6.00;;;20.90;43.60;;;;;;4951842;28;20458;-83
2023/03/18 04:11:10;;;;;;;9.33;6.23;;;20.90;43.70;;;;;;4958942;28;20977;-82
2023/03/18 04:13:42;;;;;;;8.00;6.10;;;20.90;43.70;;;;;;4954910;29;20472;-82
2023/03/18 04:16:10;;;;;;;7.97;5.73;;;20.90;43.80;;;;;;4959052;28;20481;-81
2023/03/18 04:18:38;;;;;;;7.30;5.83;;;20.90;43.70;;;;;;4955781;28;20454;-82
2023/03/18 04:21:06;;;;;;;6.80;5.50;;;20.90;43.80;;;;;;4958706;28;20461;-82
2023/03/18 04:23:35;;;;;;;7.47;5.53;;;20.90;43.90;;;;;;4954844;29;20454;-81
2023/03/18 04:26:04;;;;;;;6.37;5.67;;;20.90;43.90;;;;;;4955790;29;20478;-82
2023/03/18 04:28:33;;;;;;;7.90;5.87;;;20.80;43.90;;;;;;4957347;29;20486;-83
2023/03/18 04:31:04;;;;;;;6.27;5.20;;;20.80;44.00;;;;;;4955720;29;20459;-81
2023/03/18 04:33:33;;;;;;;6.20;4.80;;;20.80;43.90;;;;;;4956907;29;20514;-83
2023/03/18 04:36:01;;;;;;;8.03;5.23;;;20.80;44.10;;;;;;4954505;28;20484;-82
2023/03/18 04:38:29;;;;;;;6.50;4.80;;;20.80;44.10;;;;;;4955513;28;20553;-82
2023/03/18 04:40:57;;;;;;;8.10;5.50;;;20.70;44.00;;;;;;4954124;28;20459;-82
2023/03/18 04:43:25;;;;;;;6.13;5.33;;;20.70;44.00;;;;;;4952496;28;20542;-82
2023/03/18 04:45:53;;;;;;;6.67;5.10;;;20.70;44.10;;;;;;4955486;29;20486;-83
2023/03/18 04:48:23;;;;;;;5.80;5.13;;;20.60;44.20;;;;;;4953475;28;20466;-82
2023/03/18 04:50:51;;;;;;;6.47;5.50;;;20.60;44.20;;;;;;4955307;29;20459;-82
2023/03/18 04:53:19;;;;;;;6.13;5.37;;;20.70;44.30;;;;;;4957274;28;20535;-82
2023/03/18 04:55:49;;;;;;;5.83;5.00;;;20.60;44.20;;;;;;4954041;28;20475;-82
2023/03/18 04:58:17;;;;;;;6.83;4.60;;;20.60;44.20;;;;;;4955603;29;20522;-82
2023/03/18 05:00:46;;;;;;;9.13;4.80;;;20.60;44.30;;;;;;4950674;28;20466;-82
2023/03/18 05:03:14;;;;;;;7.50;4.67;;;20.60;44.30;;;;;;4958437;29;20486;-81
2023/03/18 05:05:44;;;;;;;7.37;4.77;;;20.60;44.30;;;;;;4948741;29;20479;-82
2023/03/18 05:08:13;;;;;;;6.70;4.90;;;20.60;44.40;;;;;;4956128;28;20465;-82
2023/03/18 05:10:41;;;;;;;6.57;5.60;;;20.60;44.40;;;;;;4953106;28;20896;-82
2023/03/18 05:13:10;;;;;;;7.73;5.17;;;20.50;44.30;;;;;;4956567;29;20530;-81
2023/03/18 05:15:38;;;;;;;6.30;4.30;;;20.60;44.40;;;;;;4952224;29;20487;-83
2023/03/18 05:18:07;;;;;;;6.67;4.63;;;20.50;44.40;;;;;;4958744;28;20466;-83
2023/03/18 05:20:35;;;;;;;5.20;4.70;;;20.60;44.50;;;;;;4963567;28;20458;-83
2023/03/18 05:23:04;;;;;;;6.10;4.87;;;20.50;44.40;;;;;;4964112;29;20494;-81
2023/03/18 05:25:32;;;;;;;6.93;4.13;;;20.50;44.50;;;;;;4957576;28;20518;-81
2023/03/18 05:28:01;;;;;;;5.33;4.83;;;20.60;44.50;;;;;;4959392;28;20515;-81
2023/03/18 05:30:29;;;;;;;5.40;4.23;;;20.50;44.40;;;;;;4958372;28;20455;-81
2023/03/18 05:32:57;;;;;;;7.53;4.47;;;20.50;44.50;;;;;;4952811;29;20458;-80
2023/03/18 05:35:26;;;;;;;5.57;4.53;;;20.50;44.50;;;;;;4947402;28;20498;-82
2023/03/18 05:37:54;;;;;;;7.10;4.67;;;20.50;44.50;;;;;;4954791;29;20471;-82
2023/03/18 05:40:24;;;;;;;4.77;4.27;;;20.50;44.60;;;;;;4954666;28;20534;-82
2023/03/18 05:42:52;;;;;;;8.23;4.87;;;20.50;44.60;;;;;;4961288;29;20466;-82
2023/03/18 05:45:23;;;;;;;7.10;4.33;;;20.50;44.60;;;;;;4959855;28;21007;-82
2023/03/18 05:47:51;;;;;;;5.73;4.90;;;20.50;44.60;;;;;;4959867;28;20538;-82
2023/03/18 05:50:28;;;;;;;5.20;4.40;;;20.50;44.60;;;;;;4957692;28;20459;-82
2023/03/18 05:52:57;;;;;;;5.93;4.70;;;20.50;44.70;;;;;;4959309;29;20425;-83
2023/03/18 05:55:27;;;;;;;5.17;4.20;;;20.50;44.70;;;;;;4960196;29;20475;-82
2023/03/18 05:57:55;;;;;;;6.67;4.20;;;20.50;44.70;;;;;;4957507;28;20455;-82
2023/03/18 06:00:24;;;;;;;4.80;3.90;;;20.50;44.80;;;;;;4958042;29;20454;-84
2023/03/18 06:03:03;;;;;;;5.60;4.23;;;20.50;44.70;;;;;;4962593;28;20461;-83
2023/03/18 06:05:34;;;;;;;5.07;4.20;;;20.50;44.70;;;;;;4958301;29;20489;-83
2023/03/18 06:08:02;;;;;;;4.80;4.30;;;20.50;44.80;;;;;;4956494;29;20489;-83
2023/03/18 06:10:32;;;;;;;8.50;4.40;;;20.50;44.70;;;;;;4959840;28;20831;-83
2023/03/18 06:13:00;;;;;;;6.17;4.20;;;20.50;44.80;;;;;;4959736;29;20459;-83
2023/03/18 06:15:29;;;;;;;4.80;4.30;;;20.50;44.80;;;;;;4960791;28;20483;-82
2023/03/18 06:17:57;;;;;;;4.63;4.00;;;20.50;44.70;;;;;;4950339;29;20455;-83
2023/03/18 06:20:26;;;;;;;4.83;4.33;;;20.50;45.00;;;;;;4956593;29;20459;-83
2023/03/18 06:22:53;;;;;;;6.17;4.20;;;20.50;45.00;;;;;;4961177;28;20470;-82
2023/03/18 06:25:22;;;;;;;5.57;3.90;;;20.40;44.90;;;;;;4958393;29;20958;-82
2023/03/18 06:27:52;;;;;;;4.03;3.40;;;20.50;44.90;;;;;;4959827;28;20467;-83
2023/03/18 06:30:20;;;;;;;6.30;4.10;;;20.50;44.90;;;;;;4955929;28;20455;-82
2023/03/18 06:32:48;;;;;;;6.37;4.20;;;20.40;45.10;;;;;;4960065;28;20452;-83
2023/03/18 06:35:17;;;;;;;4.13;3.73;;;20.50;45.00;;;;;;4961291;28;20475;-83
2023/03/18 06:37:46;;;;;;;4.60;3.70;;;20.50;45.00;;;;;;4961273;29;20458;-83
2023/03/18 06:40:14;;;;;;;5.37;3.90;;;20.50;45.00;;;;;;4965379;28;20442;-82
2023/03/18 06:42:42;;;;;;;4.40;4.00;;;20.50;44.90;;;;;;4950584;29;20523;-82
2023/03/18 06:45:12;;;;;;;4.90;4.40;;;20.40;45.00;;;;;;4953800;28;20465;-82
2023/03/18 06:47:40;;;;;;;3.90;3.50;;;20.40;45.00;;;;;;4956469;28;20491;-82
2023/03/18 06:50:09;;;;;;;5.43;4.10;;;20.40;45.00;;;;;;4950242;29;20464;-82
2023/03/18 06:52:37;;;;;;;3.80;3.40;;;20.40;45.10;;;;;;4956041;28;20467;-82
2023/03/18 06:55:06;;;;;;;3.73;3.43;;;20.40;45.10;;;;;;4958091;29;20485;-82
2023/03/18 06:57:34;;;;;;;5.00;3.87;;;20.40;45.20;;;;;;4946421;29;20501;-82
2023/03/18 07:00:03;;;;;;;4.33;3.80;;;20.40;45.30;;;;;;4958384;28;20451;-82
2023/03/18 07:02:33;;;;;;;4.70;4.30;;;20.40;45.20;;;;;;4956710;28;20470;-82
2023/03/18 07:05:01;;;;;;;4.20;3.80;;;20.40;45.20;;;;;;4952520;28;20462;-82
2023/03/18 07:07:29;;;;;;;3.83;3.53;;;20.40;45.20;;;;;;4958303;29;20483;-82
2023/03/18 07:09:57;;;;;;;3.73;3.43;;;20.40;45.20;;;;;;4956382;29;20455;-82
2023/03/18 07:12:27;;;;;;;8.23;4.20;;;20.40;45.40;;;;;;4956049;29;20542;-82
2023/03/18 07:14:55;;;;;;;4.40;3.27;;;20.40;45.40;;;;;;4955497;29;20478;-82
2023/03/18 07:17:23;;;;;;;4.00;3.60;;;20.40;45.40;;;;;;4960470;29;20489;-83
2023/03/18 07:19:52;;;;;;;4.30;3.67;;;20.40;45.40;;;;;;4956816;28;20547;-82
2023/03/18 07:22:21;;;;;;;6.43;3.60;;;20.40;45.40;;;;;;4957726;28;20462;-83
2023/03/18 07:24:49;;;;;;;5.83;3.67;;;20.40;45.30;;;;;;4960081;29;20478;-83
2023/03/18 07:27:17;;;;;;;4.60;4.10;;;20.40;45.30;;;;;;4955373;28;20537;-82
2023/03/18 07:29:45;;;;;;;4.23;3.80;;;20.40;45.50;;;;;;4963760;29;20470;-83
2023/03/18 07:32:13;;;;;;;3.83;3.43;;;20.50;45.60;;;;;;4962297;28;20459;-82
2023/03/18 07:34:41;;;;;;;4.37;3.97;;;20.50;45.60;;;;;;4955270;28;20456;-82
2023/03/18 07:37:11;;;;;;;4.50;4.07;;;20.50;45.60;;;;;;4956282;28;20495;-83
2023/03/18 07:39:39;;;;;;;4.17;3.57;;;20.50;45.50;;;;;;4957843;28;20454;-83
2023/03/18 07:42:08;;;;;;;5.07;3.73;;;20.50;45.60;;;;;;4962446;28;20474;-83
2023/03/18 07:44:36;;;;;;;4.30;3.90;;;20.60;45.60;;;;;;4964201;29;20450;-83
2023/03/18 07:47:04;;;;;;;4.27;3.60;;;20.60;45.50;;;;;;4963751;28;20498;-83
2023/03/18 07:49:32;;;;;;;4.03;3.30;;;20.60;45.50;;;;;;4963657;29;20558;-83
2023/03/18 07:52:02;;;;;;;4.40;3.97;;;20.60;45.50;;;;;;4960980;28;20462;-83
2023/03/18 07:54:32;;;;;;;5.60;3.63;;;20.60;45.60;;;;;;4956319;29;20466;-83
2023/03/18 07:57:02;;;;;;;4.80;3.80;;;20.60;45.50;;;;;;4959234;28;20495;-83
2023/03/18 07:59:30;;;;;;;4.97;3.53;;;20.60;45.70;;;;;;4962142;29;20466;-82
2023/03/18 08:01:58;;;;;;;4.97;3.40;;;20.60;45.70;;;;;;4960084;28;20456;-82
2023/03/18 08:04:26;;;;;;;6.00;4.10;;;20.60;45.60;;;;;;4961029;28;20459;-83
2023/03/18 08:06:55;;;;;;;4.97;3.83;;;20.60;45.70;;;;;;4959493;28;20483;-83
2023/03/18 08:09:26;;;;;;;5.10;3.40;;;20.60;45.70;;;;;;4958222;29;20546;-83
2023/03/18 08:12:01;;;;;;;4.70;3.53;;;20.60;45.80;;;;;;4963749;29;20514;-83
2023/03/18 08:14:29;;;;;;;4.30;3.50;;;20.70;45.80;;;;;;4961969;28;20459;-83
2023/03/18 08:16:57;;;;;;;4.33;3.10;;;20.70;45.70;;;;;;4965876;28;20558;-83
2023/03/18 08:19:25;;;;;;;5.57;3.40;;;20.80;45.80;;;;;;4964782;28;20459;-83
2023/03/18 08:21:54;;;;;;;4.17;3.77;;;20.80;45.80;;;;;;4962588;28;20455;-83
2023/03/18 08:24:23;;;;;;;4.43;3.40;;;20.90;45.80;;;;;;4963162;28;20465;-83
2023/03/18 08:26:51;;;;;;;4.00;3.70;;;20.90;45.70;;;;;;4956895;28;20478;-83
2023/03/18 08:29:21;;;;;;;3.60;3.30;;;21.00;45.60;;;;;;4960866;28;20483;-83
2023/03/18 08:31:49;;;;;;;5.30;3.67;;;21.00;45.50;;;;;;4956980;29;20455;-83
2023/03/18 08:34:17;;;;;;;4.63;3.53;;;21.10;45.60;;;;;;4965003;28;20451;-83
2023/03/18 08:36:45;;;;;;;3.53;3.23;;;21.10;45.50;;;;;;4964006;29;20483;-83
2023/03/18 08:39:13;;;;;;;4.03;3.67;;;21.20;45.60;;;;;;4961307;29;20481;-84
2023/03/18 08:41:41;;;;;;;5.00;4.17;;;21.30;45.40;;;;;;4957881;28;20459;-83
2023/03/18 08:44:12;;;;;;;3.80;3.50;;;21.40;45.30;;;;;;4964602;29;20470;-83
2023/03/18 08:46:41;;;;;;;3.67;3.30;;;21.50;45.40;;;;;;4962710;29;20538;-83
2023/03/18 08:49:11;;;;;;;3.97;3.63;;;21.60;45.50;;;;;;4960351;28;20462;-83
2023/03/18 08:51:39;;;;;;;4.33;3.27;;;21.60;45.30;;;;;;4961962;29;20487;-83
2023/03/18 08:54:07;;;;;;;3.80;3.50;;;21.70;45.40;;;;;;4965868;28;20491;-83
2023/03/18 08:56:37;;;;;;;3.80;3.50;;;21.80;45.40;;;;;;4958030;29;20570;-83
2023/03/18 08:59:05;;;;;;;3.67;3.37;;;21.90;45.40;;;;;;4968869;29;20538;-84
2023/03/18 09:01:34;;;;;;;3.80;3.50;;;22.00;45.70;;;;;;4966621;29;20458;-83
2023/03/18 09:04:03;;;;;;;3.80;3.40;;;22.20;45.70;;;;;;4963817;28;20459;-84
2023/03/18 09:06:31;;;;;;;3.93;3.63;;;22.40;45.90;;;;;;4966429;28;20479;-84
2023/03/18 09:09:00;;;;;;;4.03;3.33;;;22.60;46.10;;;;;;4965169;28;20455;-83
2023/03/18 09:11:28;;;;;;;3.77;3.47;;;22.90;46.00;;;;;;4965991;28;20482;-83
2023/03/18 09:13:57;;;;;;;3.80;3.50;;;23.20;46.00;;;;;;4962431;29;20455;-83
2023/03/18 09:16:25;;;;;;;3.97;3.57;;;23.50;45.90;;;;;;4963137;28;20498;-83
2023/03/18 09:18:53;;;;;;;3.47;3.17;;;23.60;45.90;;;;;;4962385;28;20455;-83
2023/03/18 09:21:23;;;;;;;3.37;3.07;;;23.80;45.90;;;;;;4963784;28;20465;-84
2023/03/18 09:23:51;;;;;;;3.73;3.43;;;23.90;45.70;;;;;;4958704;28;20539;-83
2023/03/18 09:26:19;;;;;;;3.73;3.10;;;24.10;45.80;;;;;;4961172;29;20468;-83
2023/03/18 09:28:47;;;;;;;3.13;2.83;;;24.30;45.70;;;;;;4960337;28;20512;-80
2023/03/18 09:31:16;;;;;;;3.60;3.27;;;24.60;45.80;;;;;;4958265;28;20506;-80
2023/03/18 09:33:45;;;;;;;3.93;3.53;;;24.80;45.40;;;;;;4962820;28;20831;-81
2023/03/18 09:36:14;;;;;;;3.70;3.33;;;24.90;45.20;;;;;;4962926;28;20639;-81
2023/03/18 09:38:44;;;;;;;4.73;3.83;;;24.90;45.00;;;;;;4957451;29;20463;-82
2023/03/18 09:41:22;;;;;;;3.60;3.40;;;24.90;45.10;;;;;;4959680;29;20456;-81
2023/03/18 09:43:57;;;;;;;4.20;3.80;;;24.90;45.20;;;;;;4959197;29;20449;-81
2023/03/18 09:46:30;;;;;;;5.60;3.93;;;24.90;45.20;;;;;;4968787;28;20490;-82
2023/03/18 09:49:21;;;;;;;3.70;3.40;;;24.90;45.10;;;;;;4952845;29;20478;-81
2023/03/18 09:51:53;;;;;;;3.30;3.10;;;25.00;45.20;;;;;;4958979;28;20421;-82
2023/03/18 09:54:29;;;;;;;7.23;3.83;;;25.00;45.30;;;;;;4955739;28;20457;-82
2023/03/18 09:56:57;;;;;;;6.23;3.77;;;24.90;45.10;;;;;;4959447;29;20710;-81
2023/03/18 09:59:29;;;;;;;3.97;3.33;;;24.90;45.30;;;;;;4953844;28;20447;-82
2023/03/18 10:01:57;;;;;;;3.87;3.57;;;24.80;45.20;;;;;;4947266;29;20459;-82
2023/03/18 10:04:27;;;;;;;3.83;3.43;;;24.70;45.30;;;;;;4953933;28;20459;-81
2023/03/18 10:07:04;;;;;;;3.90;3.60;;;24.70;45.40;;;;;;4958678;29;20474;-82
2023/03/18 10:09:40;;;;;;;4.60;3.60;;;24.60;45.30;;;;;;4961597;28;20461;-82
2023/03/18 10:12:14;;;;;;;4.27;3.07;;;24.50;45.50;;;;;;4962571;28;20451;-82
2023/03/18 10:14:44;;;;;;;3.50;3.20;;;24.40;45.50;;;;;;4963526;29;20546;-82
2023/03/18 10:17:17;;;;;;;3.80;3.50;;;24.40;45.70;;;;;;4959992;29;20573;-82
2023/03/18 10:19:48;;;;;;;6.90;3.77;;;24.30;45.70;;;;;;4959298;29;20535;-82
2023/03/18 10:22:25;;;;;;;3.57;3.30;;;24.30;45.60;;;;;;4956601;28;20458;-82
2023/03/18 10:24:58;;;;;;;3.80;3.50;;;24.30;45.70;;;;;;4958904;29;20485;-82
2023/03/18 10:27:32;;;;;;;3.60;3.30;;;24.30;45.70;;;;;;4962462;28;20470;-82
2023/03/18 10:30:03;;;;;;;3.97;3.50;;;24.20;45.70;;;;;;4963313;29;20446;-81
2023/03/18 10:32:34;;;;;;;3.53;3.23;;;24.30;45.90;;;;;;4954265;28;20438;-81
2023/03/18 10:35:21;;;;;;;6.37;3.70;;;24.30;45.80;;;;;;4961667;29;20458;-83
2023/03/18 10:37:51;;;;;;;3.90;3.60;;;24.30;45.70;;;;;;4963111;28;20473;-82
2023/03/18 10:40:21;;;;;;;3.90;3.60;;;24.30;45.70;;;;;;4954519;28;20436;-81
2023/03/18 10:42:49;;;;;;;6.27;4.30;;;24.30;46.40;;;;;;4956193;29;20459;-81
2023/03/18 10:45:22;;;;;;;3.87;3.57;;;24.30;45.70;;;;;;4958805;28;20430;-82
2023/03/18 10:47:57;;;;;;;3.93;3.63;;;24.30;45.60;;;;;;4956244;29;20485;-82
2023/03/18 10:50:29;;;;;;;4.97;3.73;;;24.30;45.60;;;;;;4962707;28;20454;-82
2023/03/18 10:53:01;;;;;;;4.53;3.97;;;24.30;45.70;;;;;;4958972;29;20430;-82
2023/03/18 10:55:33;;;;;;;6.70;5.07;;;24.40;45.70;;;;;;4960573;28;20542;-81
2023/03/18 10:58:01;;;;;;;10.50;4.60;;;24.40;45.60;;;;;;4954190;29;20472;-84
2023/03/18 11:00:31;;;;;;;6.27;4.40;;;24.40;45.50;;;;;;4953157;29;20460;-82
2023/03/18 11:03:04;;;;;;;8.67;4.33;;;24.40;45.60;;;;;;4956759;28;20474;-82
2023/03/18 11:05:34;;;;;;;6.57;5.00;;;24.40;45.50;;;;;;4953329;28;20472;-82
2023/03/18 11:08:04;;;;;;;5.27;4.77;;;24.50;45.40;;;;;;4961728;28;20450;-82
2023/03/18 11:10:35;;;;;;;6.50;4.20;;;24.50;45.40;;;;;;4955156;29;20448;-82
2023/03/18 11:13:05;;;;;;;4.47;4.07;;;24.50;45.40;;;;;;4959355;29;20425;-85
2023/03/18 11:15:36;;;;;;;5.73;4.37;;;24.50;45.40;;;;;;4964313;28;20550;-83
2023/03/18 11:18:04;;;;;;;32.10;21.60;;;24.50;45.40;;;;;;4956143;29;20447;-80
2023/03/18 11:20:41;;;;;;;32.43;23.37;;;22.70;45.70;;;;;;4956299;28;20582;-80
2023/03/18 11:23:16;;;;;;;38.47;24.50;;;21.60;48.60;;;;;;4952090;29;20426;-81
2023/03/18 11:25:49;;;;;;;36.47;23.63;;;19.90;52.10;;;;;;4955712;29;20485;-80
2023/03/18 11:28:21;;;;;;;34.20;22.57;;;19.60;55.00;;;;;;4955575;28;20465;-80
2023/03/18 11:30:51;;;;;;;34.37;22.80;;;19.20;55.30;;;;;;4955581;28;20546;-80
2023/03/18 11:33:20;;;;;;;37.03;21.77;;;19.30;55.50;;;;;;4956585;29;20542;-80
2023/03/18 11:35:51;;;;;;;34.47;23.50;;;19.20;55.80;;;;;;4957164;29;20482;-78
2023/03/18 11:38:20;;;;;;;37.50;22.80;;;19.20;56.30;;;;;;4947690;28;20475;-81
2023/03/18 11:40:50;;;;;;;48.33;26.53;;;19.20;56.60;;;;;;4956358;28;20462;-80
2023/03/18 11:43:20;;;;;;;38.37;24.67;;;18.70;56.80;;;;;;4956894;29;20455;-80
2023/03/18 11:45:54;;;;;;;38.93;25.27;;;18.70;57.70;;;;;;4958976;28;20510;-81
2023/03/18 11:48:32;;;;;;;32.43;23.80;;;18.80;57.20;;;;;;4957115;29;20465;-78
2023/03/18 11:51:10;;;;;;;38.90;24.27;;;18.60;57.30;;;;;;4959135;29;20451;-79
2023/03/18 11:53:46;;;;;;;31.13;21.20;;;18.40;58.70;;;;;;4958556;28;20514;-79
2023/03/18 11:56:17;;;;;;;38.23;22.00;;;18.20;58.70;;;;;;4952587;29;20555;-80
2023/03/18 11:59:01;;;;;;;33.23;21.67;;;18.50;58.40;;;;;;4953404;29;20471;-84
2023/03/18 12:01:30;;;;;;;30.70;21.27;;;18.30;58.20;;;;;;4961629;28;20459;-81
2023/03/18 12:04:32;;;;;;;24.20;17.03;;;18.60;58.60;;;;;;4959206;28;20483;-80
2023/03/18 12:07:10;;;;;;;24.60;17.87;;;18.40;57.80;;;;;;4952774;29;20479;-80
2023/03/18 12:09:41;;;;;;;28.87;18.60;;;18.10;59.00;;;;;;4951421;29;20458;-78
2023/03/18 12:12:18;;;;;;;33.43;19.83;;;18.70;58.70;;;;;;4943741;29;20463;-80
2023/03/18 12:14:49;;;;;;;27.40;18.00;;;18.50;58.70;;;;;;4954991;29;20461;-82
2023/03/18 12:17:22;;;;;;;23.43;15.87;;;18.90;58.60;;;;;;4954635;28;20475;-79
2023/03/18 12:20:12;;;;;;;21.93;15.17;;;20.00;56.40;;;;;;4961453;29;20459;-80
2023/03/18 12:22:47;;;;;;;19.83;13.60;;;20.50;55.10;;;;;;4958536;29;20459;-80
2023/03/18 12:25:29;;;;;;;20.47;13.17;;;21.00;55.10;;;;;;4956005;29;20542;-79
2023/03/18 12:28:02;;;;;;;22.77;13.57;;;21.60;53.00;;;;;;4956737;28;20457;-80
2023/03/18 12:30:41;;;;;;;11.90;10.70;;;22.10;51.50;;;;;;4954086;29;20453;-80
2023/03/18 12:33:13;;;;;;;14.60;11.30;;;23.00;51.90;;;;;;4956925;29;20944;-81
2023/03/18 12:35:47;;;;;;;11.60;9.47;;;24.30;48.20;;;;;;4960622;29;20462;-84
2023/03/18 12:38:32;;;;;;;12.00;9.70;;;25.90;45.50;;;;;;4954567;29;20480;-81
2023/03/18 12:41:04;;;;;;;12.63;9.40;;;26.20;43.90;;;;;;4946890;29;20535;-81
2023/03/18 12:43:38;;;;;;;12.30;9.83;;;25.60;42.60;;;;;;4957414;29;20459;-82
2023/03/18 12:46:11;;;;;;;10.47;9.13;;;24.40;43.90;;;;;;4952617;29;20467;-84
2023/03/18 12:48:51;;;;;;;10.80;8.90;;;23.30;44.80;;;;;;4956130;28;20493;-83
2023/03/18 12:51:21;;;;;;;10.47;8.70;;;24.90;44.50;;;;;;4950716;28;20459;-83
2023/03/18 12:53:51;;;;;;;11.90;8.77;;;25.20;43.30;;;;;;4955376;28;20502;-81
2023/03/18 12:56:21;;;;;;;12.37;9.50;;;25.40;42.70;;;;;;4954551;28;20504;-82
2023/03/18 12:58:52;;;;;;;11.07;8.70;;;25.20;46.10;;;;;;4955716;28;20980;-82